sensor_id;sensor_type;location;lat;lon;timestamp;P1;durP1;ratioP1;P2;durP2;ratioP2
25938;SDS011;13739;51.172;4.466;2022-09-29T00:01:30;7.55;;;4.57;;
25938;SDS011;13739;51.172;4.466;2022-09-29T00:03:55;10.40;;;5.13;;
25938;SDS011;13739;51.172;4.466;2022-09-29T00:06:21;8.88;;;4.55;;
25938;SDS011;13739;51.172;4.466;2022-09-29T00:08:47;10.77;;;4.95;;
25938;SDS011;13739;51.172;4.466;2022-09-29T00:11:15;9.02;;;4.88;;
25938;SDS011;13739;51.172;4.466;2022-09-29T00:13:42;13.98;;;5.20;;
25938;SDS011;13739;51.172;4.466;2022-09-29T00:16:09;11.25;;;5.22;;
25938;SDS011;13739;51.172;4.466;2022-09-29T00:18:35;10.23;;;5.32;;
25938;SDS011;13739;51.172;4.466;2022-09-29T00:21:03;11.13;;;5.05;;
25938;SDS011;13739;51.172;4.466;2022-09-29T00:23:39;8.43;;;4.50;;
25938;SDS011;13739;51.172;4.466;2022-09-29T00:26:06;11.15;;;4.60;;
25938;SDS011;13739;51.172;4.466;2022-09-29T00:28:35;13.85;;;5.00;;
25938;SDS011;13739;51.172;4.466;2022-09-29T00:31:02;8.50;;;4.60;;
25938;SDS011;13739;51.172;4.466;2022-09-29T00:33:29;7.47;;;4.72;;
25938;SDS011;13739;51.172;4.466;2022-09-29T00:36:04;8.52;;;4.47;;
25938;SDS011;13739;51.172;4.466;2022-09-29T00:38:31;9.75;;;5.00;;
25938;SDS011;13739;51.172;4.466;2022-09-29T00:40:57;8.75;;;4.75;;
25938;SDS011;13739;51.172;4.466;2022-09-29T00:46:19;11.30;;;4.95;;
25938;SDS011;13739;51.172;4.466;2022-09-29T00:48:50;9.13;;;4.82;;
25938;SDS011;13739;51.172;4.466;2022-09-29T00:51:17;7.65;;;4.72;;
25938;SDS011;13739;51.172;4.466;2022-09-29T00:53:44;9.93;;;4.88;;
25938;SDS011;13739;51.172;4.466;2022-09-29T00:56:12;7.78;;;4.88;;
25938;SDS011;13739;51.172;4.466;2022-09-29T01:01:31;11.55;;;5.45;;
25938;SDS011;13739;51.172;4.466;2022-09-29T01:04:04;13.55;;;4.90;;
25938;SDS011;13739;51.172;4.466;2022-09-29T01:06:36;7.72;;;4.53;;
25938;SDS011;13739;51.172;4.466;2022-09-29T01:09:13;9.23;;;4.68;;
25938;SDS011;13739;51.172;4.466;2022-09-29T01:11:44;8.50;;;4.97;;
25938;SDS011;13739;51.172;4.466;2022-09-29T01:14:10;10.23;;;4.60;;
25938;SDS011;13739;51.172;4.466;2022-09-29T01:16:37;10.05;;;5.25;;
25938;SDS011;13739;51.172;4.466;2022-09-29T01:19:05;11.68;;;5.28;;
25938;SDS011;13739;51.172;4.466;2022-09-29T01:24:36;7.60;;;5.07;;
25938;SDS011;13739;51.172;4.466;2022-09-29T01:30:11;10.02;;;4.80;;
25938;SDS011;13739;51.172;4.466;2022-09-29T01:32:52;7.97;;;4.88;;
25938;SDS011;13739;51.172;4.466;2022-09-29T01:35:45;8.23;;;4.40;;
25938;SDS011;13739;51.172;4.466;2022-09-29T01:38:34;11.65;;;5.03;;
25938;SDS011;13739;51.172;4.466;2022-09-29T01:44:18;12.40;;;5.63;;
25938;SDS011;13739;51.172;4.466;2022-09-29T01:49:59;12.38;;;5.03;;
25938;SDS011;13739;51.172;4.466;2022-09-29T01:52:38;13.32;;;5.57;;
25938;SDS011;13739;51.172;4.466;2022-09-29T01:55:08;10.40;;;5.50;;
25938;SDS011;13739;51.172;4.466;2022-09-29T02:00:18;7.95;;;4.97;;
25938;SDS011;13739;51.172;4.466;2022-09-29T02:05:48;8.88;;;5.05;;
25938;SDS011;13739;51.172;4.466;2022-09-29T02:08:35;10.40;;;5.72;;
25938;SDS011;13739;51.172;4.466;2022-09-29T02:11:05;9.40;;;5.43;;
25938;SDS011;13739;51.172;4.466;2022-09-29T02:13:56;10.60;;;5.30;;
25938;SDS011;13739;51.172;4.466;2022-09-29T02:16:30;10.90;;;5.63;;
25938;SDS011;13739;51.172;4.466;2022-09-29T02:19:02;8.48;;;5.30;;
25938;SDS011;13739;51.172;4.466;2022-09-29T02:21:31;13.35;;;6.15;;
25938;SDS011;13739;51.172;4.466;2022-09-29T02:23:57;11.43;;;5.30;;
25938;SDS011;13739;51.172;4.466;2022-09-29T02:26:24;12.98;;;5.78;;
25938;SDS011;13739;51.172;4.466;2022-09-29T02:28:54;13.10;;;5.78;;
25938;SDS011;13739;51.172;4.466;2022-09-29T02:31:20;9.90;;;5.85;;
25938;SDS011;13739;51.172;4.466;2022-09-29T02:33:46;13.57;;;5.35;;
25938;SDS011;13739;51.172;4.466;2022-09-29T02:36:32;10.35;;;5.75;;
25938;SDS011;13739;51.172;4.466;2022-09-29T02:41:49;12.25;;;5.53;;
25938;SDS011;13739;51.172;4.466;2022-09-29T02:44:41;11.20;;;5.90;;
25938;SDS011;13739;51.172;4.466;2022-09-29T02:55:18;11.82;;;6.10;;
25938;SDS011;13739;51.172;4.466;2022-09-29T03:00:56;11.70;;;5.90;;
25938;SDS011;13739;51.172;4.466;2022-09-29T03:03:23;13.48;;;6.47;;
25938;SDS011;13739;51.172;4.466;2022-09-29T03:05:48;11.98;;;5.78;;
25938;SDS011;13739;51.172;4.466;2022-09-29T03:08:14;14.70;;;6.07;;
25938;SDS011;13739;51.172;4.466;2022-09-29T03:10:39;11.70;;;6.32;;
25938;SDS011;13739;51.172;4.466;2022-09-29T03:13:05;12.00;;;6.57;;
25938;SDS011;13739;51.172;4.466;2022-09-29T03:15:31;11.70;;;6.13;;
25938;SDS011;13739;51.172;4.466;2022-09-29T03:17:56;17.15;;;5.95;;
25938;SDS011;13739;51.172;4.466;2022-09-29T03:20:22;13.15;;;6.47;;
25938;SDS011;13739;51.172;4.466;2022-09-29T03:22:48;13.13;;;6.57;;
25938;SDS011;13739;51.172;4.466;2022-09-29T03:25:13;13.82;;;6.30;;
25938;SDS011;13739;51.172;4.466;2022-09-29T03:27:39;10.93;;;6.07;;
25938;SDS011;13739;51.172;4.466;2022-09-29T03:30:06;15.43;;;6.40;;
25938;SDS011;13739;51.172;4.466;2022-09-29T03:32:32;11.00;;;6.28;;
25938;SDS011;13739;51.172;4.466;2022-09-29T03:34:57;11.30;;;5.85;;
25938;SDS011;13739;51.172;4.466;2022-09-29T03:37:23;12.10;;;5.68;;
25938;SDS011;13739;51.172;4.466;2022-09-29T03:39:48;10.18;;;6.15;;
25938;SDS011;13739;51.172;4.466;2022-09-29T03:42:14;10.35;;;6.45;;
25938;SDS011;13739;51.172;4.466;2022-09-29T03:44:40;9.68;;;6.32;;
25938;SDS011;13739;51.172;4.466;2022-09-29T03:47:06;13.63;;;6.75;;
25938;SDS011;13739;51.172;4.466;2022-09-29T03:49:32;9.25;;;5.40;;
25938;SDS011;13739;51.172;4.466;2022-09-29T03:51:57;10.40;;;5.63;;
25938;SDS011;13739;51.172;4.466;2022-09-29T03:54:23;10.73;;;5.97;;
25938;SDS011;13739;51.172;4.466;2022-09-29T03:56:51;10.57;;;5.95;;
25938;SDS011;13739;51.172;4.466;2022-09-29T03:59:16;13.55;;;6.10;;
25938;SDS011;13739;51.172;4.466;2022-09-29T04:01:42;11.82;;;5.60;;
25938;SDS011;13739;51.172;4.466;2022-09-29T04:04:08;11.00;;;5.93;;
25938;SDS011;13739;51.172;4.466;2022-09-29T04:06:34;9.65;;;5.80;;
25938;SDS011;13739;51.172;4.466;2022-09-29T04:09:00;10.43;;;6.13;;
25938;SDS011;13739;51.172;4.466;2022-09-29T04:11:26;10.88;;;5.95;;
25938;SDS011;13739;51.172;4.466;2022-09-29T04:13:52;9.50;;;5.65;;
25938;SDS011;13739;51.172;4.466;2022-09-29T04:16:18;15.32;;;7.15;;
25938;SDS011;13739;51.172;4.466;2022-09-29T04:18:44;12.57;;;5.93;;
25938;SDS011;13739;51.172;4.466;2022-09-29T04:21:10;19.52;;;7.00;;
25938;SDS011;13739;51.172;4.466;2022-09-29T04:23:36;19.42;;;7.03;;
25938;SDS011;13739;51.172;4.466;2022-09-29T04:26:02;12.18;;;6.60;;
25938;SDS011;13739;51.172;4.466;2022-09-29T04:28:31;14.98;;;6.50;;
25938;SDS011;13739;51.172;4.466;2022-09-29T04:30:58;17.10;;;6.75;;
25938;SDS011;13739;51.172;4.466;2022-09-29T04:33:24;13.25;;;5.90;;
25938;SDS011;13739;51.172;4.466;2022-09-29T04:35:49;10.43;;;6.38;;
25938;SDS011;13739;51.172;4.466;2022-09-29T04:38:15;17.40;;;6.88;;
25938;SDS011;13739;51.172;4.466;2022-09-29T04:40:41;11.48;;;5.88;;
25938;SDS011;13739;51.172;4.466;2022-09-29T04:43:07;10.60;;;6.53;;
25938;SDS011;13739;51.172;4.466;2022-09-29T04:45:32;16.40;;;6.97;;
25938;SDS011;13739;51.172;4.466;2022-09-29T04:47:58;11.43;;;6.15;;
25938;SDS011;13739;51.172;4.466;2022-09-29T04:50:23;13.45;;;6.35;;
25938;SDS011;13739;51.172;4.466;2022-09-29T04:52:49;12.20;;;6.30;;
25938;SDS011;13739;51.172;4.466;2022-09-29T04:55:15;15.32;;;6.85;;
25938;SDS011;13739;51.172;4.466;2022-09-29T04:57:41;14.07;;;6.63;;
25938;SDS011;13739;51.172;4.466;2022-09-29T05:00:08;14.07;;;6.68;;
25938;SDS011;13739;51.172;4.466;2022-09-29T05:02:35;13.38;;;5.88;;
25938;SDS011;13739;51.172;4.466;2022-09-29T05:05:01;11.65;;;6.28;;
25938;SDS011;13739;51.172;4.466;2022-09-29T05:07:27;11.38;;;6.15;;
25938;SDS011;13739;51.172;4.466;2022-09-29T05:09:54;16.38;;;7.80;;
25938;SDS011;13739;51.172;4.466;2022-09-29T05:12:19;18.95;;;7.63;;
25938;SDS011;13739;51.172;4.466;2022-09-29T05:14:45;17.55;;;7.53;;
25938;SDS011;13739;51.172;4.466;2022-09-29T05:17:11;15.27;;;7.55;;
25938;SDS011;13739;51.172;4.466;2022-09-29T05:19:37;16.80;;;7.90;;
25938;SDS011;13739;51.172;4.466;2022-09-29T05:22:03;23.83;;;8.40;;
25938;SDS011;13739;51.172;4.466;2022-09-29T05:24:29;14.02;;;7.00;;
25938;SDS011;13739;51.172;4.466;2022-09-29T05:26:57;14.13;;;6.50;;
25938;SDS011;13739;51.172;4.466;2022-09-29T05:29:23;14.35;;;6.97;;
25938;SDS011;13739;51.172;4.466;2022-09-29T05:31:49;15.05;;;7.20;;
25938;SDS011;13739;51.172;4.466;2022-09-29T05:34:15;13.85;;;6.95;;
25938;SDS011;13739;51.172;4.466;2022-09-29T05:36:41;14.40;;;6.20;;
25938;SDS011;13739;51.172;4.466;2022-09-29T05:39:07;19.40;;;7.53;;
25938;SDS011;13739;51.172;4.466;2022-09-29T05:41:33;18.10;;;7.50;;
25938;SDS011;13739;51.172;4.466;2022-09-29T05:43:59;14.85;;;6.88;;
25938;SDS011;13739;51.172;4.466;2022-09-29T05:46:25;16.90;;;7.10;;
25938;SDS011;13739;51.172;4.466;2022-09-29T05:48:51;14.07;;;7.45;;
25938;SDS011;13739;51.172;4.466;2022-09-29T05:51:19;15.45;;;6.80;;
25938;SDS011;13739;51.172;4.466;2022-09-29T05:53:46;15.50;;;6.97;;
25938;SDS011;13739;51.172;4.466;2022-09-29T05:56:13;14.68;;;6.47;;
25938;SDS011;13739;51.172;4.466;2022-09-29T05:58:43;19.75;;;7.82;;
25938;SDS011;13739;51.172;4.466;2022-09-29T06:01:17;15.65;;;7.07;;
25938;SDS011;13739;51.172;4.466;2022-09-29T06:03:44;14.55;;;6.93;;
25938;SDS011;13739;51.172;4.466;2022-09-29T06:06:11;11.23;;;6.88;;
25938;SDS011;13739;51.172;4.466;2022-09-29T06:08:38;13.98;;;6.60;;
25938;SDS011;13739;51.172;4.466;2022-09-29T06:11:08;13.80;;;6.53;;
25938;SDS011;13739;51.172;4.466;2022-09-29T06:13:38;11.30;;;6.72;;
25938;SDS011;13739;51.172;4.466;2022-09-29T06:16:06;13.13;;;7.10;;
25938;SDS011;13739;51.172;4.466;2022-09-29T06:18:32;16.40;;;7.30;;
25938;SDS011;13739;51.172;4.466;2022-09-29T06:20:59;14.82;;;7.13;;
25938;SDS011;13739;51.172;4.466;2022-09-29T06:23:26;11.38;;;6.25;;
25938;SDS011;13739;51.172;4.466;2022-09-29T06:25:58;11.88;;;6.88;;
25938;SDS011;13739;51.172;4.466;2022-09-29T06:28:26;17.40;;;6.68;;
25938;SDS011;13739;51.172;4.466;2022-09-29T06:30:56;13.43;;;7.05;;
25938;SDS011;13739;51.172;4.466;2022-09-29T06:33:27;12.80;;;6.57;;
25938;SDS011;13739;51.172;4.466;2022-09-29T06:35:53;14.15;;;6.55;;
25938;SDS011;13739;51.172;4.466;2022-09-29T06:38:38;12.25;;;6.75;;
25938;SDS011;13739;51.172;4.466;2022-09-29T06:41:04;16.38;;;6.80;;
25938;SDS011;13739;51.172;4.466;2022-09-29T06:43:31;14.30;;;7.10;;
25938;SDS011;13739;51.172;4.466;2022-09-29T06:45:56;16.95;;;7.32;;
25938;SDS011;13739;51.172;4.466;2022-09-29T06:48:22;18.70;;;7.60;;
25938;SDS011;13739;51.172;4.466;2022-09-29T06:50:48;16.63;;;7.20;;
25938;SDS011;13739;51.172;4.466;2022-09-29T06:53:14;15.43;;;7.55;;
25938;SDS011;13739;51.172;4.466;2022-09-29T06:55:39;20.20;;;8.05;;
25938;SDS011;13739;51.172;4.466;2022-09-29T06:58:05;15.57;;;7.90;;
25938;SDS011;13739;51.172;4.466;2022-09-29T07:00:31;14.48;;;7.78;;
25938;SDS011;13739;51.172;4.466;2022-09-29T07:02:57;15.00;;;7.43;;
25938;SDS011;13739;51.172;4.466;2022-09-29T07:05:23;14.13;;;7.93;;
25938;SDS011;13739;51.172;4.466;2022-09-29T07:07:48;15.90;;;8.20;;
25938;SDS011;13739;51.172;4.466;2022-09-29T07:10:14;22.50;;;9.35;;
25938;SDS011;13739;51.172;4.466;2022-09-29T07:12:40;18.13;;;8.75;;
25938;SDS011;13739;51.172;4.466;2022-09-29T07:15:11;19.65;;;8.52;;
25938;SDS011;13739;51.172;4.466;2022-09-29T07:17:37;15.52;;;8.15;;
25938;SDS011;13739;51.172;4.466;2022-09-29T07:20:03;15.35;;;8.68;;
25938;SDS011;13739;51.172;4.466;2022-09-29T07:22:29;20.63;;;8.50;;
25938;SDS011;13739;51.172;4.466;2022-09-29T07:24:54;21.90;;;8.90;;
25938;SDS011;13739;51.172;4.466;2022-09-29T07:27:20;19.30;;;8.88;;
25938;SDS011;13739;51.172;4.466;2022-09-29T07:29:48;20.02;;;8.45;;
25938;SDS011;13739;51.172;4.466;2022-09-29T07:32:15;16.45;;;8.50;;
25938;SDS011;13739;51.172;4.466;2022-09-29T07:34:41;18.25;;;8.75;;
25938;SDS011;13739;51.172;4.466;2022-09-29T07:37:07;18.25;;;8.70;;
25938;SDS011;13739;51.172;4.466;2022-09-29T07:39:32;20.08;;;9.77;;
25938;SDS011;13739;51.172;4.466;2022-09-29T07:41:58;20.17;;;9.13;;
25938;SDS011;13739;51.172;4.466;2022-09-29T07:44:24;19.02;;;9.85;;
25938;SDS011;13739;51.172;4.466;2022-09-29T07:46:50;17.80;;;9.43;;
25938;SDS011;13739;51.172;4.466;2022-09-29T07:49:15;21.13;;;9.65;;
25938;SDS011;13739;51.172;4.466;2022-09-29T07:51:41;15.23;;;8.70;;
25938;SDS011;13739;51.172;4.466;2022-09-29T07:54:07;20.75;;;9.38;;
25938;SDS011;13739;51.172;4.466;2022-09-29T07:56:32;22.48;;;9.45;;
25938;SDS011;13739;51.172;4.466;2022-09-29T07:58:59;19.80;;;8.93;;
25938;SDS011;13739;51.172;4.466;2022-09-29T08:01:26;18.13;;;8.90;;
25938;SDS011;13739;51.172;4.466;2022-09-29T08:03:53;19.05;;;9.63;;
25938;SDS011;13739;51.172;4.466;2022-09-29T08:06:20;17.02;;;9.07;;
25938;SDS011;13739;51.172;4.466;2022-09-29T08:08:47;17.85;;;8.65;;
25938;SDS011;13739;51.172;4.466;2022-09-29T08:11:13;17.10;;;8.38;;
25938;SDS011;13739;51.172;4.466;2022-09-29T08:13:41;18.42;;;8.35;;
25938;SDS011;13739;51.172;4.466;2022-09-29T08:16:08;15.30;;;8.90;;
25938;SDS011;13739;51.172;4.466;2022-09-29T08:18:36;15.00;;;8.23;;
25938;SDS011;13739;51.172;4.466;2022-09-29T08:21:02;15.60;;;7.72;;
25938;SDS011;13739;51.172;4.466;2022-09-29T08:23:29;12.05;;;8.05;;
25938;SDS011;13739;51.172;4.466;2022-09-29T08:26:02;18.52;;;8.10;;
25938;SDS011;13739;51.172;4.466;2022-09-29T08:28:31;14.38;;;8.00;;
25938;SDS011;13739;51.172;4.466;2022-09-29T08:31:04;17.23;;;8.52;;
25938;SDS011;13739;51.172;4.466;2022-09-29T08:33:44;16.60;;;7.38;;
25938;SDS011;13739;51.172;4.466;2022-09-29T08:38:46;15.40;;;6.95;;
25938;SDS011;13739;51.172;4.466;2022-09-29T08:44:26;15.25;;;6.82;;
25938;SDS011;13739;51.172;4.466;2022-09-29T08:52:11;11.70;;;6.40;;
25938;SDS011;13739;51.172;4.466;2022-09-29T08:54:40;18.67;;;6.53;;
25938;SDS011;13739;51.172;4.466;2022-09-29T08:57:12;10.70;;;6.30;;
25938;SDS011;13739;51.172;4.466;2022-09-29T09:21:22;9.27;;;4.70;;
25938;SDS011;13739;51.172;4.466;2022-09-29T09:29:06;7.43;;;4.00;;
25938;SDS011;13739;51.172;4.466;2022-09-29T09:31:50;7.85;;;3.75;;
25938;SDS011;13739;51.172;4.466;2022-09-29T09:45:03;5.80;;;3.20;;
25938;SDS011;13739;51.172;4.466;2022-09-29T09:55:24;7.43;;;3.53;;
25938;SDS011;13739;51.172;4.466;2022-09-29T10:18:42;6.90;;;3.05;;
25938;SDS011;13739;51.172;4.466;2022-09-29T10:21:19;4.40;;;2.55;;
25938;SDS011;13739;51.172;4.466;2022-09-29T10:23:53;6.30;;;2.85;;
25938;SDS011;13739;51.172;4.466;2022-09-29T10:28:57;5.90;;;2.72;;
25938;SDS011;13739;51.172;4.466;2022-09-29T10:31:40;5.55;;;2.80;;
25938;SDS011;13739;51.172;4.466;2022-09-29T10:36:49;3.67;;;1.95;;
25938;SDS011;13739;51.172;4.466;2022-09-29T10:42:14;4.57;;;0.90;;
25938;SDS011;13739;51.172;4.466;2022-09-29T10:45:09;3.55;;;1.20;;
25938;SDS011;13739;51.172;4.466;2022-09-29T10:47:40;4.53;;;1.73;;
25938;SDS011;13739;51.172;4.466;2022-09-29T10:50:22;5.20;;;1.80;;
25938;SDS011;13739;51.172;4.466;2022-09-29T10:52:56;2.22;;;1.60;;
25938;SDS011;13739;51.172;4.466;2022-09-29T10:55:24;3.60;;;1.58;;
25938;SDS011;13739;51.172;4.466;2022-09-29T10:57:53;7.88;;;1.77;;
25938;SDS011;13739;51.172;4.466;2022-09-29T11:05:52;9.68;;;1.75;;
25938;SDS011;13739;51.172;4.466;2022-09-29T11:08:24;3.15;;;1.10;;
25938;SDS011;13739;51.172;4.466;2022-09-29T11:11:05;3.38;;;1.50;;
25938;SDS011;13739;51.172;4.466;2022-09-29T11:13:34;4.20;;;1.63;;
25938;SDS011;13739;51.172;4.466;2022-09-29T11:16:18;4.03;;;1.67;;
25938;SDS011;13739;51.172;4.466;2022-09-29T11:18:56;4.30;;;1.65;;
25938;SDS011;13739;51.172;4.466;2022-09-29T11:29:34;2.10;;;1.27;;
25938;SDS011;13739;51.172;4.466;2022-09-29T11:53:56;2.40;;;1.17;;
25938;SDS011;13739;51.172;4.466;2022-09-29T11:56:39;4.93;;;1.33;;
25938;SDS011;13739;51.172;4.466;2022-09-29T12:04:57;3.55;;;1.20;;
25938;SDS011;13739;51.172;4.466;2022-09-29T12:18:19;3.83;;;1.30;;
25938;SDS011;13739;51.172;4.466;2022-09-29T12:20:49;2.22;;;1.23;;
25938;SDS011;13739;51.172;4.466;2022-09-29T12:23:17;2.63;;;1.10;;
25938;SDS011;13739;51.172;4.466;2022-09-29T12:26:08;2.70;;;1.20;;
25938;SDS011;13739;51.172;4.466;2022-09-29T12:28:38;5.07;;;1.60;;
25938;SDS011;13739;51.172;4.466;2022-09-29T12:31:13;2.00;;;1.20;;
25938;SDS011;13739;51.172;4.466;2022-09-29T12:33:45;2.22;;;1.30;;
25938;SDS011;13739;51.172;4.466;2022-09-29T12:36:39;2.38;;;1.20;;
25938;SDS011;13739;51.172;4.466;2022-09-29T12:42:16;5.13;;;1.42;;
25938;SDS011;13739;51.172;4.466;2022-09-29T12:50:31;2.28;;;1.10;;
25938;SDS011;13739;51.172;4.466;2022-09-29T12:56:00;2.33;;;1.10;;
25938;SDS011;13739;51.172;4.466;2022-09-29T12:58:46;1.40;;;0.90;;
25938;SDS011;13739;51.172;4.466;2022-09-29T13:01:27;1.77;;;0.82;;
25938;SDS011;13739;51.172;4.466;2022-09-29T13:12:16;2.75;;;1.10;;
25938;SDS011;13739;51.172;4.466;2022-09-29T13:14:49;2.30;;;0.90;;
25938;SDS011;13739;51.172;4.466;2022-09-29T13:28:42;2.60;;;0.95;;
25938;SDS011;13739;51.172;4.466;2022-09-29T13:31:16;3.92;;;1.00;;
25938;SDS011;13739;51.172;4.466;2022-09-29T13:33:47;3.45;;;1.27;;
25938;SDS011;13739;51.172;4.466;2022-09-29T13:38:54;4.30;;;1.30;;
25938;SDS011;13739;51.172;4.466;2022-09-29T13:46:32;1.30;;;0.75;;
25938;SDS011;13739;51.172;4.466;2022-09-29T13:51:41;2.15;;;1.13;;
25938;SDS011;13739;51.172;4.466;2022-09-29T13:56:48;9.10;;;3.88;;
25938;SDS011;13739;51.172;4.466;2022-09-29T13:59:25;9.35;;;4.20;;
25938;SDS011;13739;51.172;4.466;2022-09-29T14:01:56;3.50;;;1.40;;
25938;SDS011;13739;51.172;4.466;2022-09-29T14:07:09;2.88;;;1.17;;
25938;SDS011;13739;51.172;4.466;2022-09-29T14:09:55;1.52;;;0.85;;
25938;SDS011;13739;51.172;4.466;2022-09-29T14:12:22;2.95;;;1.33;;
25938;SDS011;13739;51.172;4.466;2022-09-29T14:14:53;2.63;;;1.17;;
25938;SDS011;13739;51.172;4.466;2022-09-29T14:17:24;1.88;;;0.95;;
25938;SDS011;13739;51.172;4.466;2022-09-29T14:20:02;2.22;;;0.98;;
25938;SDS011;13739;51.172;4.466;2022-09-29T14:32:58;2.33;;;1.17;;
25938;SDS011;13739;51.172;4.466;2022-09-29T14:35:34;2.60;;;0.85;;
25938;SDS011;13739;51.172;4.466;2022-09-29T14:40:32;1.73;;;0.95;;
25938;SDS011;13739;51.172;4.466;2022-09-29T14:43:05;4.55;;;2.15;;
25938;SDS011;13739;51.172;4.466;2022-09-29T14:45:56;9.15;;;1.55;;
25938;SDS011;13739;51.172;4.466;2022-09-29T14:48:59;3.50;;;1.20;;
25938;SDS011;13739;51.172;4.466;2022-09-29T14:51:59;1.73;;;1.08;;
25938;SDS011;13739;51.172;4.466;2022-09-29T14:57:28;4.03;;;1.50;;
25938;SDS011;13739;51.172;4.466;2022-09-29T15:00:05;2.05;;;1.10;;
25938;SDS011;13739;51.172;4.466;2022-09-29T15:02:49;4.47;;;1.27;;
25938;SDS011;13739;51.172;4.466;2022-09-29T15:05:30;2.95;;;1.60;;
25938;SDS011;13739;51.172;4.466;2022-09-29T15:07:58;3.85;;;1.42;;
25938;SDS011;13739;51.172;4.466;2022-09-29T15:10:27;2.17;;;1.50;;
25938;SDS011;13739;51.172;4.466;2022-09-29T15:13:13;3.05;;;1.67;;
25938;SDS011;13739;51.172;4.466;2022-09-29T15:15:49;3.25;;;1.23;;
25938;SDS011;13739;51.172;4.466;2022-09-29T15:18:40;3.47;;;1.10;;
25938;SDS011;13739;51.172;4.466;2022-09-29T15:21:36;2.35;;;1.40;;
25938;SDS011;13739;51.172;4.466;2022-09-29T15:26:55;3.90;;;1.15;;
25938;SDS011;13739;51.172;4.466;2022-09-29T15:29:28;3.35;;;1.20;;
25938;SDS011;13739;51.172;4.466;2022-09-29T15:31:54;3.65;;;1.15;;
25938;SDS011;13739;51.172;4.466;2022-09-29T15:34:21;1.85;;;1.08;;
25938;SDS011;13739;51.172;4.466;2022-09-29T15:36:50;1.55;;;1.02;;
25938;SDS011;13739;51.172;4.466;2022-09-29T15:42:02;2.25;;;1.30;;
25938;SDS011;13739;51.172;4.466;2022-09-29T15:44:38;3.85;;;1.45;;
25938;SDS011;13739;51.172;4.466;2022-09-29T15:47:22;7.55;;;1.60;;
25938;SDS011;13739;51.172;4.466;2022-09-29T15:49:51;2.47;;;1.40;;
25938;SDS011;13739;51.172;4.466;2022-09-29T15:52:18;3.15;;;1.42;;
25938;SDS011;13739;51.172;4.466;2022-09-29T15:54:47;3.45;;;1.52;;
25938;SDS011;13739;51.172;4.466;2022-09-29T16:00:21;2.42;;;1.30;;
25938;SDS011;13739;51.172;4.466;2022-09-29T16:03:13;6.72;;;1.25;;
25938;SDS011;13739;51.172;4.466;2022-09-29T16:06:00;2.97;;;1.40;;
25938;SDS011;13739;51.172;4.466;2022-09-29T16:08:28;5.05;;;2.20;;
25938;SDS011;13739;51.172;4.466;2022-09-29T16:11:02;5.45;;;1.38;;
25938;SDS011;13739;51.172;4.466;2022-09-29T16:13:37;2.13;;;1.27;;
25938;SDS011;13739;51.172;4.466;2022-09-29T16:16:09;3.30;;;1.50;;
25938;SDS011;13739;51.172;4.466;2022-09-29T16:21:09;2.70;;;1.40;;
25938;SDS011;13739;51.172;4.466;2022-09-29T16:23:48;2.45;;;1.25;;
25938;SDS011;13739;51.172;4.466;2022-09-29T16:26:18;2.45;;;1.40;;
25938;SDS011;13739;51.172;4.466;2022-09-29T16:31:32;4.03;;;1.45;;
25938;SDS011;13739;51.172;4.466;2022-09-29T16:33:59;2.90;;;1.48;;
25938;SDS011;13739;51.172;4.466;2022-09-29T16:36:26;2.33;;;1.30;;
25938;SDS011;13739;51.172;4.466;2022-09-29T16:38:58;4.00;;;1.60;;
25938;SDS011;13739;51.172;4.466;2022-09-29T16:46:45;2.20;;;1.35;;
25938;SDS011;13739;51.172;4.466;2022-09-29T16:52:01;3.78;;;1.70;;
25938;SDS011;13739;51.172;4.466;2022-09-29T16:55:32;2.78;;;1.40;;
25938;SDS011;13739;51.172;4.466;2022-09-29T16:57:59;2.88;;;1.70;;
25938;SDS011;13739;51.172;4.466;2022-09-29T17:00:36;5.00;;;1.70;;
25938;SDS011;13739;51.172;4.466;2022-09-29T17:03:02;3.45;;;1.95;;
25938;SDS011;13739;51.172;4.466;2022-09-29T17:05:30;3.22;;;1.95;;
25938;SDS011;13739;51.172;4.466;2022-09-29T17:08:04;3.97;;;2.05;;
25938;SDS011;13739;51.172;4.466;2022-09-29T17:18:24;9.02;;;5.18;;
25938;SDS011;13739;51.172;4.466;2022-09-29T18:22:59;7.82;;;3.60;;
25938;SDS011;13739;51.172;4.466;2022-09-29T18:25:30;6.35;;;3.60;;
25938;SDS011;13739;51.172;4.466;2022-09-29T18:27:57;5.68;;;3.58;;
25938;SDS011;13739;51.172;4.466;2022-09-29T18:32:59;10.07;;;3.90;;
25938;SDS011;13739;51.172;4.466;2022-09-29T18:35:32;6.63;;;3.40;;
25938;SDS011;13739;51.172;4.466;2022-09-29T18:38:00;8.05;;;4.28;;
25938;SDS011;13739;51.172;4.466;2022-09-29T18:40:26;7.80;;;4.22;;
25938;SDS011;13739;51.172;4.466;2022-09-29T18:42:54;9.23;;;4.78;;
25938;SDS011;13739;51.172;4.466;2022-09-29T18:45:23;7.50;;;4.28;;
25938;SDS011;13739;51.172;4.466;2022-09-29T18:48:03;7.63;;;4.00;;
25938;SDS011;13739;51.172;4.466;2022-09-29T18:50:31;9.93;;;6.30;;
25938;SDS011;13739;51.172;4.466;2022-09-29T18:52:58;12.90;;;5.18;;
25938;SDS011;13739;51.172;4.466;2022-09-29T18:55:25;9.45;;;4.70;;
25938;SDS011;13739;51.172;4.466;2022-09-29T18:57:53;8.38;;;4.20;;
25938;SDS011;13739;51.172;4.466;2022-09-29T19:00:21;7.85;;;3.70;;
25938;SDS011;13739;51.172;4.466;2022-09-29T19:05:24;10.18;;;4.20;;
25938;SDS011;13739;51.172;4.466;2022-09-29T19:07:54;6.03;;;4.07;;
25938;SDS011;13739;51.172;4.466;2022-09-29T19:10:22;8.52;;;4.18;;
25938;SDS011;13739;51.172;4.466;2022-09-29T19:12:49;7.25;;;3.88;;
25938;SDS011;13739;51.172;4.466;2022-09-29T19:15:20;7.47;;;3.60;;
25938;SDS011;13739;51.172;4.466;2022-09-29T19:17:47;7.72;;;3.67;;
25938;SDS011;13739;51.172;4.466;2022-09-29T19:20:14;9.60;;;3.97;;
25938;SDS011;13739;51.172;4.466;2022-09-29T19:22:41;7.60;;;3.60;;
25938;SDS011;13739;51.172;4.466;2022-09-29T19:25:11;17.58;;;7.05;;
25938;SDS011;13739;51.172;4.466;2022-09-29T19:27:39;17.67;;;7.40;;
25938;SDS011;13739;51.172;4.466;2022-09-29T19:35:29;8.68;;;4.35;;
25938;SDS011;13739;51.172;4.466;2022-09-29T19:40:31;8.77;;;4.45;;
25938;SDS011;13739;51.172;4.466;2022-09-29T19:43:01;9.02;;;4.82;;
25938;SDS011;13739;51.172;4.466;2022-09-29T19:45:29;12.77;;;6.40;;
25938;SDS011;13739;51.172;4.466;2022-09-29T19:48:01;18.83;;;7.68;;
25938;SDS011;13739;51.172;4.466;2022-09-29T19:50:28;12.52;;;6.15;;
25938;SDS011;13739;51.172;4.466;2022-09-29T19:53:12;10.75;;;5.80;;
25938;SDS011;13739;51.172;4.466;2022-09-29T19:55:38;7.53;;;4.78;;
25938;SDS011;13739;51.172;4.466;2022-09-29T19:58:05;10.68;;;5.25;;
25938;SDS011;13739;51.172;4.466;2022-09-29T20:00:31;9.23;;;5.28;;
25938;SDS011;13739;51.172;4.466;2022-09-29T20:02:57;12.05;;;5.85;;
25938;SDS011;13739;51.172;4.466;2022-09-29T20:05:24;10.80;;;6.22;;
25938;SDS011;13739;51.172;4.466;2022-09-29T20:07:49;15.95;;;7.18;;
25938;SDS011;13739;51.172;4.466;2022-09-29T20:10:16;10.05;;;5.70;;
25938;SDS011;13739;51.172;4.466;2022-09-29T20:12:44;11.07;;;5.78;;
25938;SDS011;13739;51.172;4.466;2022-09-29T20:15:10;11.35;;;5.50;;
25938;SDS011;13739;51.172;4.466;2022-09-29T20:17:36;11.18;;;5.50;;
25938;SDS011;13739;51.172;4.466;2022-09-29T20:20:04;8.63;;;5.90;;
25938;SDS011;13739;51.172;4.466;2022-09-29T20:22:32;13.10;;;6.57;;
25938;SDS011;13739;51.172;4.466;2022-09-29T20:24:59;13.13;;;6.18;;
25938;SDS011;13739;51.172;4.466;2022-09-29T20:27:26;9.35;;;6.00;;
25938;SDS011;13739;51.172;4.466;2022-09-29T20:29:52;12.70;;;6.28;;
25938;SDS011;13739;51.172;4.466;2022-09-29T20:32:18;10.32;;;5.90;;
25938;SDS011;13739;51.172;4.466;2022-09-29T20:34:45;11.18;;;5.95;;
25938;SDS011;13739;51.172;4.466;2022-09-29T20:42:45;14.77;;;6.65;;
25938;SDS011;13739;51.172;4.466;2022-09-29T20:45:12;15.20;;;7.57;;
25938;SDS011;13739;51.172;4.466;2022-09-29T20:47:40;15.63;;;7.97;;